Time;durP1;ratioP1;P1;durP2;ratioP2;P2;SDS_P1;SDS_P2;PMS_P1;PMS_P2;Temp;Humidity;BMP_temperature;BMP_pressure;BME280_temperature;BME280_humidity;BME280_pressure;Samples;Min_cycle;Max_cycle;Signal;HPM_P1;HPM_P2
2022/01/10 00:01:46;;;;;;;26.35;18.33;;;5.50;99.90;;;;;;6124593;23;20025;-86
2022/01/10 00:04:11;;;;;;;23.02;17.45;;;5.40;99.90;;;;;;6124180;23;20002;-86
2022/01/10 00:06:37;;;;;;;24.20;18.00;;;5.30;99.90;;;;;;6097223;23;20391;-86
2022/01/10 00:09:04;;;;;;;21.35;16.83;;;5.30;99.90;;;;;;6124612;23;20421;-86
2022/01/10 00:11:30;;;;;;;22.55;17.17;;;4.70;99.90;;;;;;6123858;23;20550;-86
2022/01/10 00:13:55;;;;;;;21.30;16.20;;;4.60;99.90;;;;;;6124439;23;20016;-85
2022/01/10 00:16:21;;;;;;;21.85;16.80;;;4.90;99.90;;;;;;6124692;23;20025;-86
2022/01/10 00:18:47;;;;;;;22.75;16.23;;;4.60;99.90;;;;;;6123570;23;20006;-86
2022/01/10 00:21:12;;;;;;;22.52;16.27;;;5.10;99.90;;;;;;6123958;23;20460;-86
2022/01/10 00:23:38;;;;;;;20.92;16.60;;;5.20;99.90;;;;;;6125069;23;20345;-86
2022/01/10 00:26:04;;;;;;;22.60;18.00;;;4.80;99.90;;;;;;6098339;23;20340;-86
2022/01/10 00:28:29;;;;;;;27.42;18.92;;;4.80;99.90;;;;;;6126691;23;20014;-86
2022/01/10 00:30:55;;;;;;;21.10;16.83;;;4.40;99.90;;;;;;6125625;23;20010;-86
2022/01/10 00:33:21;;;;;;;22.67;17.92;;;4.40;99.90;;;;;;6125958;23;20028;-86
2022/01/10 00:35:47;;;;;;;23.45;18.65;;;4.40;99.90;;;;;;6126400;23;20050;-86
2022/01/10 00:38:13;;;;;;;23.52;17.92;;;5.10;99.90;;;;;;6125267;23;20072;-86
2022/01/10 00:40:40;;;;;;;25.50;18.48;;;4.60;99.90;;;;;;6126532;23;20101;-86
2022/01/10 00:43:08;;;;;;;25.88;19.33;;;5.30;99.90;;;;;;6126865;23;20006;-86
2022/01/10 00:45:33;;;;;;;24.52;18.88;;;5.20;99.90;;;;;;6126229;23;20010;-87
2022/01/10 00:48:00;;;;;;;22.02;16.95;;;5.20;99.90;;;;;;6125847;23;20433;-86
2022/01/10 00:50:27;;;;;;;22.33;17.60;;;4.50;99.90;;;;;;6125954;23;20012;-86
2022/01/10 00:52:54;;;;;;;23.05;17.73;;;5.10;99.90;;;;;;6126110;23;20031;-86
2022/01/10 00:55:20;;;;;;;22.33;16.70;;;5.20;99.90;;;;;;6126032;23;20010;-86
2022/01/10 00:57:46;;;;;;;19.70;16.60;;;5.10;99.90;;;;;;6125670;23;20002;-87
2022/01/10 01:00:14;;;;;;;20.75;16.60;;;5.10;99.90;;;;;;6125686;23;20010;-86
2022/01/10 01:02:41;;;;;;;23.70;17.02;;;4.50;99.90;;;;;;6125833;23;20017;-85
2022/01/10 01:05:10;;;;;;;20.73;16.55;;;4.40;99.90;;;;;;6125029;23;20002;-86
2022/01/10 01:07:37;;;;;;;21.63;16.65;;;4.40;99.90;;;;;;6125883;23;20495;-86
2022/01/10 01:12:50;;;;;;;20.63;16.52;;;4.30;99.90;;;;;;6125403;23;20010;-86
2022/01/10 01:15:30;;;;;;;23.98;17.17;;;4.70;99.90;;;;;;6125748;23;20006;-86
2022/01/10 01:25:41;;;;;;;19.08;16.90;;;4.80;99.90;;;;;;6125651;23;20061;-86
2022/01/10 01:28:07;;;;;;;21.80;17.20;;;4.70;99.90;;;;;;6124395;23;20441;-86
2022/01/10 01:30:33;;;;;;;22.10;17.00;;;4.30;99.90;;;;;;6126926;23;20006;-86
2022/01/10 01:32:59;;;;;;;23.60;17.27;;;4.40;99.90;;;;;;6124850;23;20020;-86
2022/01/10 01:35:25;;;;;;;18.75;16.02;;;4.90;99.90;;;;;;6125471;23;20085;-85
2022/01/10 01:37:51;;;;;;;21.20;16.45;;;4.50;99.90;;;;;;6125064;23;20472;-86
2022/01/10 01:40:19;;;;;;;25.95;17.67;;;5.10;99.90;;;;;;6125496;23;20495;-86
2022/01/10 01:42:45;;;;;;;24.95;18.27;;;4.30;99.90;;;;;;6099816;23;20006;-85
2022/01/10 01:45:12;;;;;;;23.67;17.88;;;4.80;99.90;;;;;;6125181;23;20495;-86
2022/01/10 01:47:39;;;;;;;20.92;16.90;;;4.40;99.90;;;;;;6124776;23;20341;-86
2022/01/10 01:50:06;;;;;;;21.00;16.30;;;4.80;99.90;;;;;;6125239;23;20006;-86
2022/01/10 01:52:33;;;;;;;21.38;15.65;;;4.40;99.90;;;;;;6126018;23;20002;-86
2022/01/10 01:54:59;;;;;;;19.98;16.30;;;4.50;99.90;;;;;;6125481;23;20074;-85
2022/01/10 01:57:26;;;;;;;24.15;17.73;;;4.90;99.90;;;;;;6125815;23;20013;-86
2022/01/10 01:59:52;;;;;;;20.65;16.45;;;4.40;99.90;;;;;;6125040;23;20006;-86
2022/01/10 02:02:18;;;;;;;21.35;16.52;;;4.90;99.90;;;;;;6125175;23;20432;-86
2022/01/10 02:04:44;;;;;;;21.33;16.00;;;4.40;99.90;;;;;;6125195;23;20053;-86
2022/01/10 02:07:10;;;;;;;22.75;17.98;;;5.10;99.90;;;;;;6125835;23;20006;-86
2022/01/10 02:09:35;;;;;;;20.75;16.30;;;4.80;99.90;;;;;;6125439;23;20337;-86
2022/01/10 02:12:01;;;;;;;20.73;16.25;;;4.50;99.90;;;;;;6125727;23;20018;-86
2022/01/10 02:14:27;;;;;;;20.95;17.30;;;4.50;99.90;;;;;;6124442;23;20012;-86
2022/01/10 02:16:55;;;;;;;22.35;16.48;;;5.10;99.90;;;;;;6125458;23;20021;-86
2022/01/10 02:19:22;;;;;;;20.45;16.40;;;4.50;99.90;;;;;;6125981;23;20006;-86
2022/01/10 02:21:48;;;;;;;21.33;17.52;;;5.10;99.90;;;;;;6125055;23;20084;-86
2022/01/10 02:24:14;;;;;;;21.60;16.20;;;4.50;99.90;;;;;;6124458;23;20021;-85
2022/01/10 02:26:39;;;;;;;29.23;19.67;;;4.60;99.90;;;;;;6125379;23;20006;-86
2022/01/10 02:29:06;;;;;;;25.50;18.35;;;4.40;99.90;;;;;;6124876;23;20002;-86
2022/01/10 02:31:40;;;;;;;27.08;19.25;;;5.00;99.90;;;;;;6098655;23;20440;-86
2022/01/10 02:34:06;;;;;;;25.90;18.90;;;4.70;99.90;;;;;;6125360;23;20013;-86
2022/01/10 02:36:32;;;;;;;25.60;17.58;;;4.10;99.90;;;;;;6124673;23;20018;-86
2022/01/10 02:39:00;;;;;;;33.78;23.25;;;4.90;99.90;;;;;;6125315;23;20005;-86
2022/01/10 02:41:32;;;;;;;28.20;20.70;;;4.70;99.90;;;;;;6125329;23;20014;-86
2022/01/10 02:44:00;;;;;;;32.17;21.33;;;4.10;99.90;;;;;;6123262;23;20006;-85
2022/01/10 02:46:26;;;;;;;41.35;26.13;;;4.00;99.90;;;;;;6124882;23;20006;-86
2022/01/10 02:48:53;;;;;;;59.53;29.45;;;3.90;99.90;;;;;;6125649;23;20002;-86
2022/01/10 02:51:19;;;;;;;72.43;30.10;;;4.00;99.90;;;;;;6124816;23;20006;-86
2022/01/10 02:53:45;;;;;;;58.13;28.60;;;4.00;99.90;;;;;;6125227;23;20447;-86
2022/01/10 02:56:11;;;;;;;130.57;31.77;;;4.00;99.90;;;;;;6124197;23;20033;-86
2022/01/10 02:58:37;;;;;;;61.25;30.23;;;4.50;99.90;;;;;;6124209;23;20002;-86
2022/01/10 03:01:03;;;;;;;44.30;26.63;;;3.90;99.90;;;;;;6098729;23;20049;-86
2022/01/10 03:03:30;;;;;;;42.50;25.95;;;4.60;99.90;;;;;;6124119;23;20006;-86
2022/01/10 03:05:56;;;;;;;44.03;27.98;;;4.70;99.90;;;;;;6124690;23;20037;-86
2022/01/10 03:08:23;;;;;;;40.88;26.92;;;4.20;99.90;;;;;;6124535;23;20025;-85
2022/01/10 03:10:49;;;;;;;62.83;29.15;;;4.30;99.90;;;;;;6125050;23;20009;-86
2022/01/10 03:13:15;;;;;;;135.60;30.98;;;4.20;99.90;;;;;;6124582;23;20002;-86
2022/01/10 03:15:40;;;;;;;296.70;33.78;;;4.10;99.90;;;;;;6124821;23;20016;-86
2022/01/10 03:18:06;;;;;;;66.22;29.48;;;4.40;99.90;;;;;;6124005;23;20008;-85
2022/01/10 03:20:31;;;;;;;113.50;30.80;;;4.20;99.90;;;;;;6097834;23;20014;-86
2022/01/10 03:22:57;;;;;;;102.63;30.67;;;4.70;99.90;;;;;;6124322;23;20013;-86
2022/01/10 03:25:23;;;;;;;95.95;30.88;;;4.30;99.90;;;;;;6125019;23;20005;-86
2022/01/10 03:27:48;;;;;;;82.30;30.15;;;4.30;99.90;;;;;;6123888;23;20005;-86
2022/01/10 03:30:17;;;;;;;81.43;30.85;;;4.30;99.90;;;;;;6125537;23;19993;-86
2022/01/10 03:32:45;;;;;;;114.55;31.65;;;4.70;99.90;;;;;;6124967;23;20005;-86
2022/01/10 03:35:11;;;;;;;82.57;28.58;;;4.20;99.90;;;;;;6123554;23;20452;-86
2022/01/10 03:37:37;;;;;;;59.80;28.17;;;4.30;99.90;;;;;;6124578;23;20101;-86
2022/01/10 03:40:04;;;;;;;58.45;27.90;;;4.30;99.90;;;;;;6124335;23;20041;-87
2022/01/10 03:42:29;;;;;;;56.45;27.48;;;4.30;99.90;;;;;;6124497;23;20009;-86
2022/01/10 03:44:55;;;;;;;79.53;28.02;;;4.90;99.90;;;;;;6098416;23;20058;-86
2022/01/10 03:47:21;;;;;;;68.70;26.65;;;4.70;99.90;;;;;;6123626;23;20009;-86
2022/01/10 03:49:47;;;;;;;47.97;26.15;;;4.30;99.90;;;;;;6124588;23;20002;-86
2022/01/10 03:52:13;;;;;;;40.85;25.77;;;4.30;99.90;;;;;;6124554;23;20013;-86
2022/01/10 03:54:38;;;;;;;73.45;26.08;;;4.30;99.90;;;;;;6124068;23;20031;-86
2022/01/10 03:57:05;;;;;;;137.48;29.50;;;4.20;99.90;;;;;;6099405;23;20014;-86
2022/01/10 03:59:32;;;;;;;178.45;29.85;;;4.20;99.90;;;;;;6124355;23;20006;-86
2022/01/10 04:01:57;;;;;;;119.55;29.52;;;4.30;99.90;;;;;;6124336;23;20017;-86
2022/01/10 04:04:23;;;;;;;61.30;27.25;;;4.60;99.90;;;;;;6124607;23;20089;-86
2022/01/10 04:06:50;;;;;;;122.82;27.85;;;4.70;99.90;;;;;;6123927;23;20078;-86
2022/01/10 04:09:19;;;;;;;183.57;29.77;;;4.60;99.90;;;;;;6124000;23;20138;-86
2022/01/10 04:11:44;;;;;;;206.50;31.38;;;4.50;99.90;;;;;;6123815;23;20010;-86
2022/01/10 04:14:10;;;;;;;165.23;31.05;;;3.90;99.90;;;;;;6124190;23;20012;-86
2022/01/10 04:16:36;;;;;;;258.40;33.17;;;4.20;99.90;;;;;;6098664;23;20009;-86
2022/01/10 04:19:02;;;;;;;213.23;31.48;;;4.30;99.90;;;;;;6124705;23;20005;-86
2022/01/10 04:21:27;;;;;;;339.45;37.88;;;4.10;99.90;;;;;;6123345;23;20018;-86
2022/01/10 04:23:53;;;;;;;69.72;30.30;;;3.70;99.90;;;;;;6125074;23;20056;-86
2022/01/10 04:26:18;;;;;;;81.00;30.92;;;4.40;99.90;;;;;;6097692;23;20006;-86
2022/01/10 04:28:45;;;;;;;59.25;29.75;;;3.90;99.90;;;;;;6124044;23;19998;-86
2022/01/10 04:31:11;;;;;;;50.50;28.48;;;4.00;99.90;;;;;;6124603;23;20341;-86
2022/01/10 04:33:38;;;;;;;50.42;30.17;;;4.60;99.90;;;;;;6124288;23;20013;-86
2022/01/10 04:36:03;;;;;;;50.78;29.85;;;4.10;99.90;;;;;;6123002;23;20450;-86
2022/01/10 04:38:29;;;;;;;49.85;29.20;;;4.10;99.90;;;;;;6123359;23;20010;-86
2022/01/10 04:40:55;;;;;;;50.42;29.63;;;4.20;99.90;;;;;;6123648;23;20081;-86
2022/01/10 04:43:21;;;;;;;46.85;28.52;;;4.20;99.90;;;;;;6124405;23;20005;-86
2022/01/10 04:45:46;;;;;;;49.58;29.75;;;4.20;99.90;;;;;;6124722;23;20013;-87
2022/01/10 04:48:15;;;;;;;46.65;28.58;;;4.30;99.90;;;;;;6098489;23;20441;-86
2022/01/10 04:53:24;;;;;;;45.65;28.13;;;4.90;99.90;;;;;;6124724;23;20033;-86
2022/01/10 04:55:50;;;;;;;48.90;28.58;;;4.40;99.90;;;;;;6123784;23;20002;-86
2022/01/10 04:58:16;;;;;;;44.33;26.75;;;4.60;99.90;;;;;;6124266;23;20453;-86
2022/01/10 05:00:41;;;;;;;46.50;28.23;;;4.40;99.90;;;;;;6124119;23;20025;-85
2022/01/10 05:03:07;;;;;;;48.83;27.52;;;4.40;99.90;;;;;;6124303;23;20076;-86
2022/01/10 05:05:33;;;;;;;54.92;27.20;;;4.40;99.90;;;;;;6123647;23;20085;-86
2022/01/10 05:07:58;;;;;;;47.55;27.08;;;4.50;99.90;;;;;;6123854;23;20002;-86
2022/01/10 05:10:24;;;;;;;43.90;25.92;;;4.30;99.90;;;;;;6123994;23;20345;-86
2022/01/10 05:12:50;;;;;;;48.33;27.15;;;4.40;99.90;;;;;;6123563;23;20013;-86
2022/01/10 05:15:16;;;;;;;47.90;27.63;;;4.40;99.90;;;;;;6125627;23;20046;-86
2022/01/10 05:17:43;;;;;;;48.25;28.40;;;4.30;99.90;;;;;;6125729;23;20002;-86
2022/01/10 05:20:09;;;;;;;47.45;28.08;;;4.90;99.90;;;;;;6124804;23;20014;-86
2022/01/10 05:22:35;;;;;;;47.50;27.45;;;4.40;99.90;;;;;;6125761;23;20077;-86
2022/01/10 05:25:01;;;;;;;46.47;27.17;;;4.80;99.90;;;;;;6125404;23;20002;-86
2022/01/10 05:27:26;;;;;;;43.60;26.05;;;4.40;99.90;;;;;;6125852;23;20033;-86
2022/01/10 05:29:52;;;;;;;42.78;27.25;;;4.50;99.90;;;;;;6100144;23;20017;-86
2022/01/10 05:32:17;;;;;;;39.83;24.48;;;4.50;99.90;;;;;;6125554;23;20002;-86
2022/01/10 05:34:43;;;;;;;37.17;22.88;;;4.90;99.90;;;;;;6125427;23;19998;-86
2022/01/10 05:37:09;;;;;;;36.78;23.35;;;4.90;99.90;;;;;;6125373;23;20032;-86
2022/01/10 05:39:34;;;;;;;37.38;24.50;;;4.40;99.90;;;;;;6125411;23;20006;-86
2022/01/10 05:42:00;;;;;;;37.92;23.63;;;4.80;99.90;;;;;;6125811;23;20072;-86
2022/01/10 05:44:27;;;;;;;40.13;24.13;;;4.80;99.90;;;;;;6125417;23;19998;-86
2022/01/10 05:46:53;;;;;;;34.55;21.92;;;4.30;99.90;;;;;;6125909;23;20389;-86
2022/01/10 05:49:24;;;;;;;37.42;23.60;;;4.30;99.90;;;;;;6125103;23;20024;-86
2022/01/10 05:51:50;;;;;;;36.90;21.77;;;4.40;99.90;;;;;;6125970;23;20009;-87
2022/01/10 05:54:16;;;;;;;32.92;21.30;;;4.90;99.90;;;;;;6125326;23;20428;-86
2022/01/10 05:56:41;;;;;;;32.92;21.50;;;4.30;99.90;;;;;;6126447;23;20021;-86
2022/01/10 05:59:07;;;;;;;33.40;21.05;;;4.80;99.90;;;;;;6125595;23;19997;-86
2022/01/10 06:01:32;;;;;;;45.38;30.58;;;4.30;99.90;;;;;;6125308;23;20017;-87
2022/01/10 06:03:58;;;;;;;38.88;23.15;;;4.90;99.90;;;;;;6124484;23;20009;-86
2022/01/10 06:06:23;;;;;;;31.83;21.30;;;4.20;99.90;;;;;;6099097;23;20433;-85
2022/01/10 06:08:49;;;;;;;32.83;21.75;;;4.20;99.90;;;;;;6125186;23;20002;-86
2022/01/10 06:11:17;;;;;;;32.22;20.90;;;4.80;99.90;;;;;;6125113;23;20006;-85
2022/01/10 06:13:43;;;;;;;32.35;20.00;;;4.10;99.90;;;;;;6125615;23;20425;-86
2022/01/10 06:16:09;;;;;;;31.02;20.25;;;4.60;99.90;;;;;;6125752;23;20010;-86
2022/01/10 06:18:35;;;;;;;29.55;19.13;;;4.70;99.90;;;;;;6124879;23;20006;-86
2022/01/10 06:21:01;;;;;;;30.55;19.77;;;4.10;99.90;;;;;;6124975;23;20519;-86
2022/01/10 06:23:26;;;;;;;31.65;19.45;;;4.60;99.90;;;;;;6125620;23;20010;-86
2022/01/10 06:25:52;;;;;;;28.40;19.05;;;4.10;99.90;;;;;;6125344;23;20094;-86
2022/01/10 06:28:18;;;;;;;30.90;21.55;;;4.10;99.90;;;;;;6125244;23;20382;-86
2022/01/10 06:30:44;;;;;;;28.90;18.73;;;4.20;99.90;;;;;;6125240;23;20030;-86
2022/01/10 06:33:11;;;;;;;27.55;17.83;;;4.60;99.90;;;;;;6125093;23;20029;-86
2022/01/10 06:35:36;;;;;;;28.13;18.50;;;4.70;99.90;;;;;;6125138;23;20002;-86
2022/01/10 06:38:03;;;;;;;32.75;18.20;;;4.10;99.90;;;;;;6124392;23;20037;-86
2022/01/10 06:40:28;;;;;;;25.38;14.48;;;4.60;99.90;;;;;;6125073;23;20010;-86
2022/01/10 06:42:54;;;;;;;21.20;14.82;;;4.10;99.90;;;;;;6124980;23;20013;-85
2022/01/10 06:45:20;;;;;;;22.25;14.30;;;4.00;99.90;;;;;;6124910;23;20129;-86
2022/01/10 06:47:46;;;;;;;22.48;14.52;;;4.00;99.90;;;;;;6125796;23;19998;-86
2022/01/10 06:50:11;;;;;;;21.63;15.15;;;4.60;99.90;;;;;;6124621;23;20341;-86
2022/01/10 06:52:37;;;;;;;29.05;19.92;;;3.80;99.90;;;;;;6124469;23;20012;-86
2022/01/10 06:55:04;;;;;;;19.35;14.55;;;3.80;99.90;;;;;;6124575;23;20478;-86
2022/01/10 06:57:29;;;;;;;22.17;13.98;;;4.00;99.90;;;;;;6125003;23;20014;-86
2022/01/10 06:59:55;;;;;;;21.17;14.00;;;4.00;99.90;;;;;;6125021;23;20088;-86
2022/01/10 07:02:20;;;;;;;21.00;13.18;;;4.60;99.90;;;;;;6125127;23;20443;-86
2022/01/10 07:04:46;;;;;;;19.75;13.15;;;4.20;99.90;;;;;;6123553;23;20013;-86
2022/01/10 07:07:12;;;;;;;21.48;12.80;;;4.70;99.90;;;;;;6124330;23;20022;-86
2022/01/10 07:09:38;;;;;;;16.55;12.02;;;4.20;99.90;;;;;;6124623;23;19998;-86
2022/01/10 07:12:04;;;;;;;21.67;13.38;;;4.20;99.90;;;;;;6124945;23;20013;-86
2022/01/10 07:14:33;;;;;;;18.10;13.25;;;4.20;99.90;;;;;;6124872;23;20085;-86
2022/01/10 07:16:58;;;;;;;20.73;13.25;;;4.50;99.90;;;;;;6124598;23;20441;-86
2022/01/10 07:19:24;;;;;;;19.05;12.65;;;4.10;99.90;;;;;;6098345;23;20013;-88
2022/01/10 07:21:50;;;;;;;15.90;11.48;;;4.10;99.90;;;;;;6124634;23;20014;-87
2022/01/10 07:24:16;;;;;;;15.40;11.70;;;4.10;99.90;;;;;;6124537;23;20365;-86
2022/01/10 07:26:42;;;;;;;15.43;10.02;;;4.70;99.90;;;;;;6125287;23;20006;-87
2022/01/10 07:29:08;;;;;;;15.70;10.73;;;4.80;99.90;;;;;;6124419;23;20085;-89
2022/01/10 07:31:35;;;;;;;14.65;10.57;;;4.20;99.90;;;;;;6125329;23;20033;-88
2022/01/10 07:34:02;;;;;;;16.45;10.15;;;4.20;99.90;;;;;;6123992;23;20013;-89
2022/01/10 07:36:28;;;;;;;17.40;10.95;;;4.20;99.90;;;;;;6097634;23;20028;-89
2022/01/10 07:38:54;;;;;;;15.43;9.95;;;4.20;99.90;;;;;;6124617;23;19998;-89
2022/01/10 07:41:20;;;;;;;14.55;10.30;;;4.60;99.90;;;;;;6124981;23;20018;-89
2022/01/10 07:43:45;;;;;;;16.85;11.63;;;4.80;99.90;;;;;;6124512;23;20002;-89
2022/01/10 07:46:11;;;;;;;16.65;10.52;;;4.30;99.90;;;;;;6124948;23;20006;-89
2022/01/10 07:48:38;;;;;;;15.32;10.65;;;4.30;99.90;;;;;;6123499;23;20002;-89
2022/01/10 07:51:08;;;;;;;15.98;10.65;;;4.90;99.90;;;;;;6124966;23;20006;-89
2022/01/10 07:53:35;;;;;;;14.15;9.98;;;4.30;99.90;;;;;;6097628;23;20010;-87
2022/01/10 07:56:00;;;;;;;15.90;10.23;;;4.30;99.90;;;;;;6123986;23;20050;-87
2022/01/10 07:58:26;;;;;;;15.95;10.75;;;4.30;99.90;;;;;;6124702;23;20376;-86
2022/01/10 08:00:52;;;;;;;15.60;10.73;;;4.30;99.90;;;;;;6123632;23;20345;-87
2022/01/10 08:03:17;;;;;;;16.80;11.15;;;4.30;99.90;;;;;;6123234;23;20378;-86
2022/01/10 08:05:43;;;;;;;18.15;11.55;;;4.30;99.90;;;;;;6124246;23;20002;-87
2022/01/10 08:08:08;;;;;;;14.27;10.50;;;5.00;99.90;;;;;;6124068;23;20006;-87
2022/01/10 08:10:34;;;;;;;13.35;10.20;;;4.30;99.90;;;;;;6124898;23;20002;-86
2022/01/10 08:13:00;;;;;;;15.02;10.10;;;4.60;99.90;;;;;;6123799;23;20013;-86
2022/01/10 08:15:25;;;;;;;17.95;10.90;;;4.10;99.90;;;;;;6124438;23;20009;-86
2022/01/10 08:17:51;;;;;;;17.75;11.35;;;4.60;99.90;;;;;;6096381;23;20032;-85
2022/01/10 08:20:17;;;;;;;15.85;10.43;;;4.10;99.90;;;;;;6123285;23;20101;-86
2022/01/10 08:22:42;;;;;;;15.43;10.35;;;4.10;99.90;;;;;;6123745;23;19998;-85
2022/01/10 08:25:08;;;;;;;17.23;11.27;;;4.10;99.90;;;;;;6124053;23;20029;-86
2022/01/10 08:27:35;;;;;;;17.67;10.65;;;4.20;99.90;;;;;;6124400;23;20002;-86
2022/01/10 08:30:03;;;;;;;14.68;10.88;;;4.30;99.90;;;;;;6124883;23;20006;-87
2022/01/10 08:32:29;;;;;;;16.13;11.40;;;4.30;99.90;;;;;;6124469;23;20324;-87
2022/01/10 08:34:55;;;;;;;14.38;10.35;;;4.30;99.90;;;;;;6124414;23;20010;-87
2022/01/10 08:37:21;;;;;;;15.43;10.98;;;4.80;99.90;;;;;;6121997;23;20014;-87
2022/01/10 08:39:49;;;;;;;15.80;10.82;;;4.20;99.90;;;;;;6124066;23;20032;-87
2022/01/10 08:42:16;;;;;;;15.60;10.48;;;4.20;99.90;;;;;;6124440;23;20042;-87
2022/01/10 08:44:42;;;;;;;15.00;9.98;;;4.20;99.90;;;;;;6123779;23;20006;-87
2022/01/10 08:47:08;;;;;;;14.27;9.98;;;4.20;99.90;;;;;;6124475;23;20037;-85
2022/01/10 08:49:34;;;;;;;12.80;8.68;;;4.90;99.90;;;;;;6127436;23;20013;-81
2022/01/10 08:52:00;;;;;;;15.50;10.30;;;4.60;99.90;;;;;;6100088;23;20440;-86
2022/01/10 08:54:25;;;;;;;12.43;9.02;;;5.10;99.90;;;;;;6125138;23;20002;-86
2022/01/10 08:56:52;;;;;;;12.90;9.25;;;4.30;99.90;;;;;;6126910;23;20118;-90
2022/01/10 08:59:19;;;;;;;15.02;9.95;;;4.80;99.90;;;;;;6126189;23;20425;-85
2022/01/10 09:01:46;;;;;;;12.98;9.05;;;4.40;99.90;;;;;;6124952;23;20078;-86
2022/01/10 09:04:18;;;;;;;13.95;9.50;;;5.00;99.90;;;;;;6126370;23;20006;-85
2022/01/10 09:06:45;;;;;;;12.52;8.57;;;4.30;99.90;;;;;;6126132;23;20056;-86
2022/01/10 09:09:12;;;;;;;13.98;9.20;;;4.80;99.90;;;;;;6125797;23;20021;-86
2022/01/10 09:11:39;;;;;;;12.45;8.98;;;4.30;99.90;;;;;;6125910;23;20010;-88
2022/01/10 09:14:06;;;;;;;10.18;8.18;;;5.00;99.90;;;;;;6125689;23;20314;-87
2022/01/10 09:16:31;;;;;;;11.40;8.70;;;4.70;99.90;;;;;;6125876;23;20009;-87
2022/01/10 09:18:57;;;;;;;11.60;8.60;;;5.00;99.90;;;;;;6125682;23;20006;-87
2022/01/10 09:21:23;;;;;;;13.52;8.60;;;4.60;99.90;;;;;;6125114;23;20010;-87
2022/01/10 09:23:49;;;;;;;13.68;9.07;;;4.60;99.90;;;;;;6125682;23;20064;-88
2022/01/10 09:26:15;;;;;;;10.77;8.13;;;4.50;99.90;;;;;;6100381;23;20006;-87
2022/01/10 09:28:42;;;;;;;12.70;8.07;;;4.40;99.90;;;;;;6099387;23;20066;-88
2022/01/10 09:31:09;;;;;;;12.15;8.13;;;4.40;99.90;;;;;;6125639;23;20089;-96
2022/01/10 09:33:35;;;;;;;10.77;7.57;;;4.40;99.90;;;;;;6099963;23;20448;-87
2022/01/10 09:36:01;;;;;;;10.10;7.68;;;5.20;99.90;;;;;;6124189;23;20014;-86
2022/01/10 09:38:27;;;;;;;10.52;7.85;;;5.00;99.90;;;;;;6124916;23;20018;-87
2022/01/10 09:40:54;;;;;;;10.45;7.30;;;5.20;99.90;;;;;;6125253;23;20013;-87
2022/01/10 09:43:19;;;;;;;8.73;6.55;;;4.60;99.90;;;;;;6125670;23;20002;-87
2022/01/10 09:45:46;;;;;;;9.95;7.28;;;4.40;99.90;;;;;;6125377;23;20126;-87
2022/01/10 09:48:12;;;;;;;10.27;6.43;;;4.50;99.90;;;;;;6126112;23;20006;-87
2022/01/10 09:50:37;;;;;;;10.18;6.97;;;5.20;99.90;;;;;;6125590;23;20009;-87
2022/01/10 09:53:04;;;;;;;9.65;6.13;;;5.10;99.90;;;;;;6125096;23;20344;-87
2022/01/10 09:55:32;;;;;;;6.80;5.57;;;4.90;99.90;;;;;;6125966;23;20467;-87
2022/01/10 09:57:58;;;;;;;7.05;5.45;;;4.70;99.90;;;;;;6125457;23;20066;-87
2022/01/10 10:00:24;;;;;;;7.78;5.80;;;5.20;99.90;;;;;;6124830;23;20096;-87
2022/01/10 10:02:50;;;;;;;7.45;5.47;;;4.70;99.90;;;;;;6099668;23;20005;-87
2022/01/10 10:05:18;;;;;;;7.07;5.32;;;5.50;99.90;;;;;;6125095;23;20472;-87
2022/01/10 10:07:44;;;;;;;5.20;4.50;;;4.70;99.90;;;;;;6098972;23;20014;-87
2022/01/10 10:10:12;;;;;;;7.10;5.13;;;5.00;99.90;;;;;;6125733;23;20516;-87
2022/01/10 10:12:39;;;;;;;7.22;4.85;;;4.90;99.90;;;;;;6124769;23;20088;-87
2022/01/10 10:15:06;;;;;;;7.03;5.15;;;5.00;99.90;;;;;;6125092;23;20009;-87
2022/01/10 10:17:33;;;;;;;6.85;5.03;;;5.00;99.90;;;;;;6125503;23;20010;-88
2022/01/10 10:19:59;;;;;;;6.55;5.05;;;5.50;99.90;;;;;;6124956;23;20081;-88
2022/01/10 10:22:24;;;;;;;7.80;5.45;;;5.20;99.90;;;;;;6124822;23;20037;-88
2022/01/10 10:24:50;;;;;;;6.18;5.20;;;5.40;99.90;;;;;;6125347;23;20005;-88
2022/01/10 10:27:17;;;;;;;7.05;5.32;;;5.50;99.90;;;;;;6125093;23;20073;-88
2022/01/10 10:29:44;;;;;;;5.38;4.80;;;5.80;99.90;;;;;;6125524;23;20002;-88
2022/01/10 10:32:11;;;;;;;5.65;4.50;;;5.50;99.90;;;;;;6125399;23;20017;-89
2022/01/10 10:34:38;;;;;;;6.40;4.80;;;5.20;99.90;;;;;;6125599;23;20014;-88
2022/01/10 10:37:03;;;;;;;5.80;3.85;;;5.30;99.90;;;;;;6124890;23;20017;-88
2022/01/10 10:39:31;;;;;;;4.53;4.13;;;5.30;99.90;;;;;;6124753;23;20459;-85
2022/01/10 10:42:00;;;;;;;5.25;4.28;;;5.80;99.90;;;;;;6099306;23;20040;-89
2022/01/10 10:44:27;;;;;;;4.97;4.30;;;5.70;99.90;;;;;;6124583;23;20073;-86
2022/01/10 10:46:53;;;;;;;5.93;4.28;;;5.60;99.90;;;;;;6125337;23;20453;-88
2022/01/10 10:49:20;;;;;;;6.75;4.10;;;5.90;99.90;;;;;;6124791;23;20005;-87
2022/01/10 10:51:50;;;;;;;5.57;4.47;;;5.70;99.90;;;;;;6124091;23;20068;-87
2022/01/10 10:54:18;;;;;;;4.85;4.25;;;5.50;99.90;;;;;;6124979;23;20002;-87
2022/01/10 10:56:45;;;;;;;6.00;4.10;;;5.50;99.90;;;;;;6098589;23;20089;-88
2022/01/10 10:59:12;;;;;;;6.63;4.22;;;6.20;99.90;;;;;;6124769;23;20492;-85
2022/01/10 11:01:42;;;;;;;5.45;4.43;;;5.20;99.90;;;;;;6125307;23;20093;-86
2022/01/10 11:04:10;;;;;;;6.50;4.38;;;6.10;99.90;;;;;;6125409;23;20433;-86
2022/01/10 11:06:36;;;;;;;4.47;4.00;;;5.40;99.90;;;;;;6124151;23;20002;-85
2022/01/10 11:09:06;;;;;;;4.63;3.95;;;5.40;99.90;;;;;;6124669;23;20010;-87
2022/01/10 11:11:32;;;;;;;5.80;4.35;;;5.50;99.90;;;;;;6124458;23;20006;-87
2022/01/10 11:13:58;;;;;;;5.50;3.47;;;5.40;99.90;;;;;;6124626;23;20042;-93
2022/01/10 11:16:25;;;;;;;5.68;4.00;;;6.00;99.90;;;;;;6125851;23;20603;-90
2022/01/10 11:18:53;;;;;;;5.82;4.07;;;5.80;99.90;;;;;;6125462;23;20081;-90
2022/01/10 11:21:19;;;;;;;5.50;4.18;;;5.50;99.90;;;;;;6124587;23;20436;-94
2022/01/10 11:23:46;;;;;;;5.85;3.80;;;5.90;99.90;;;;;;6124980;23;20002;-91
2022/01/10 11:26:14;;;;;;;4.80;4.07;;;5.40;99.90;;;;;;6124619;23;20435;-89
2022/01/10 11:28:56;;;;;;;5.22;3.60;;;5.80;99.90;;;;;;6098877;23;20429;-90
2022/01/10 11:31:26;;;;;;;5.07;4.35;;;5.40;99.90;;;;;;6125282;23;20001;-88
2022/01/10 11:33:53;;;;;;;5.95;3.72;;;5.70;99.90;;;;;;6123875;23;20009;-90
2022/01/10 11:36:21;;;;;;;4.68;3.80;;;5.40;99.90;;;;;;6124310;23;20006;-94
2022/01/10 11:38:53;;;;;;;5.80;3.90;;;5.90;99.90;;;;;;6124606;23;20023;-84
2022/01/10 11:41:27;;;;;;;4.90;3.33;;;5.40;99.90;;;;;;6123745;23;20017;-85
2022/01/10 11:44:06;;;;;;;3.53;3.20;;;5.30;99.90;;;;;;6125108;23;20006;-87
2022/01/10 11:46:37;;;;;;;3.30;2.90;;;5.90;99.90;;;;;;6124923;23;20010;-86
2022/01/10 11:49:09;;;;;;;3.53;3.20;;;5.70;99.90;;;;;;6124481;23;20028;-86
2022/01/10 11:51:37;;;;;;;3.97;3.35;;;5.70;99.90;;;;;;6124332;23;20036;-86
2022/01/10 11:54:28;;;;;;;4.10;3.47;;;5.20;99.90;;;;;;6125222;23;20038;-85
2022/01/10 11:57:00;;;;;;;4.65;3.63;;;5.00;99.90;;;;;;6124112;23;20040;-86
2022/01/10 11:59:37;;;;;;;5.90;3.00;;;5.00;99.90;;;;;;6124230;23;19998;-88
2022/01/10 12:02:10;;;;;;;4.32;3.42;;;5.10;99.90;;;;;;6124019;23;20631;-88
2022/01/10 12:04:58;;;;;;;4.07;3.67;;;5.20;99.90;;;;;;6123951;23;19998;-87
2022/01/10 12:07:26;;;;;;;4.03;3.15;;;5.10;99.90;;;;;;6124225;23;20009;-87
2022/01/10 12:09:53;;;;;;;3.75;3.10;;;5.90;99.90;;;;;;6124113;23;20030;-88
2022/01/10 12:12:21;;;;;;;4.53;3.05;;;5.70;99.90;;;;;;6124234;23;20042;-87
2022/01/10 12:14:48;;;;;;;3.15;2.78;;;5.80;99.90;;;;;;6124076;23;20024;-87
2022/01/10 12:17:14;;;;;;;5.13;2.95;;;5.30;99.90;;;;;;6123966;23;20016;-88
2022/01/10 12:19:41;;;;;;;3.72;3.33;;;6.00;99.90;;;;;;6097958;23;20081;-87
2022/01/10 12:22:08;;;;;;;3.88;3.08;;;5.30;99.90;;;;;;6123910;23;20085;-88
2022/01/10 12:24:35;;;;;;;3.90;3.38;;;5.90;99.90;;;;;;6098069;23;20508;-87
2022/01/10 12:27:03;;;;;;;4.47;3.38;;;6.10;99.90;;;;;;6123828;23;20014;-87
2022/01/10 12:29:30;;;;;;;3.78;3.40;;;5.50;99.90;;;;;;6123976;23;20046;-87
2022/01/10 12:31:56;;;;;;;4.32;2.70;;;5.50;99.90;;;;;;6097557;23;20013;-88
2022/01/10 12:34:22;;;;;;;4.18;2.85;;;5.90;99.90;;;;;;6124439;23;20006;-88
2022/01/10 12:36:47;;;;;;;4.03;3.05;;;6.20;99.90;;;;;;6123699;23;20460;-88
2022/01/10 12:39:27;;;;;;;3.75;3.28;;;5.60;99.90;;;;;;6123512;23;20099;-87
2022/01/10 12:41:58;;;;;;;4.50;3.70;;;5.70;99.90;;;;;;6098115;23;20516;-88
2022/01/10 12:44:27;;;;;;;3.55;2.97;;;6.30;99.90;;;;;;6124692;23;20006;-88
2022/01/10 12:46:54;;;;;;;3.28;2.97;;;5.60;99.90;;;;;;6124733;23;20028;-88
2022/01/10 12:49:20;;;;;;;3.45;3.15;;;5.70;99.90;;;;;;6124540;23;20002;-87
2022/01/10 12:51:51;;;;;;;3.78;3.03;;;5.80;99.90;;;;;;6124785;23;20009;-88
2022/01/10 12:54:22;;;;;;;3.50;3.00;;;5.60;99.90;;;;;;6123245;23;20013;-87